sensor_id;sensor_type;location;lat;lon;timestamp;P1;durP1;ratioP1;P2;durP2;ratioP2
4895;SDS011;2463;49.948;8.472;2024-03-23T00:55:58;95.68;;;8.65;;
4895;SDS011;2463;49.948;8.472;2024-03-23T00:58:25;95.82;;;9.10;;
4895;SDS011;2463;49.948;8.472;2024-03-23T01:00:50;96.10;;;9.20;;
4895;SDS011;2463;49.948;8.472;2024-03-23T01:03:16;97.50;;;8.77;;
4895;SDS011;2463;49.948;8.472;2024-03-23T01:05:42;98.67;;;9.77;;
4895;SDS011;2463;49.948;8.472;2024-03-23T01:08:07;95.40;;;9.00;;
4895;SDS011;2463;49.948;8.472;2024-03-23T01:10:33;98.60;;;9.53;;
4895;SDS011;2463;49.948;8.472;2024-03-23T01:12:59;95.77;;;8.80;;
4895;SDS011;2463;49.948;8.472;2024-03-23T01:15:24;99.13;;;9.17;;
4895;SDS011;2463;49.948;8.472;2024-03-23T01:17:50;99.40;;;9.10;;
4895;SDS011;2463;49.948;8.472;2024-03-23T01:20:16;94.97;;;8.73;;
4895;SDS011;2463;49.948;8.472;2024-03-23T01:22:42;96.50;;;9.10;;
4895;SDS011;2463;49.948;8.472;2024-03-23T01:25:07;95.47;;;8.77;;
4895;SDS011;2463;49.948;8.472;2024-03-23T01:27:33;98.30;;;8.37;;
4895;SDS011;2463;49.948;8.472;2024-03-23T01:29:59;97.47;;;8.97;;
4895;SDS011;2463;49.948;8.472;2024-03-23T01:32:25;97.77;;;8.97;;
4895;SDS011;2463;49.948;8.472;2024-03-23T01:34:50;94.80;;;8.00;;
4895;SDS011;2463;49.948;8.472;2024-03-23T01:37:16;112.23;;;8.07;;
4895;SDS011;2463;49.948;8.472;2024-03-23T01:39:42;96.17;;;8.43;;
4895;SDS011;2463;49.948;8.472;2024-03-23T01:42:07;95.00;;;8.83;;
4895;SDS011;2463;49.948;8.472;2024-03-23T01:44:33;99.57;;;9.73;;
4895;SDS011;2463;49.948;8.472;2024-03-23T01:46:59;96.70;;;8.57;;
4895;SDS011;2463;49.948;8.472;2024-03-23T01:49:25;95.23;;;9.03;;
4895;SDS011;2463;49.948;8.472;2024-03-23T01:51:51;98.88;;;9.57;;
4895;SDS011;2463;49.948;8.472;2024-03-23T01:54:16;98.10;;;9.50;;
4895;SDS011;2463;49.948;8.472;2024-03-23T01:56:42;97.67;;;9.57;;
4895;SDS011;2463;49.948;8.472;2024-03-23T01:59:08;95.20;;;8.83;;
4895;SDS011;2463;49.948;8.472;2024-03-23T02:01:37;99.80;;;10.80;;
4895;SDS011;2463;49.948;8.472;2024-03-23T02:04:02;99.47;;;10.52;;
4895;SDS011;2463;49.948;8.472;2024-03-23T02:06:28;96.77;;;9.10;;
4895;SDS011;2463;49.948;8.472;2024-03-23T02:08:54;99.30;;;9.57;;
4895;SDS011;2463;49.948;8.472;2024-03-23T02:11:20;96.65;;;9.45;;
4895;SDS011;2463;49.948;8.472;2024-03-23T02:13:46;95.87;;;9.53;;
4895;SDS011;2463;49.948;8.472;2024-03-23T02:16:12;96.87;;;9.20;;
4895;SDS011;2463;49.948;8.472;2024-03-23T02:18:38;97.22;;;9.48;;
4895;SDS011;2463;49.948;8.472;2024-03-23T02:21:04;96.00;;;8.60;;
4895;SDS011;2463;49.948;8.472;2024-03-23T02:23:30;98.00;;;8.97;;
4895;SDS011;2463;49.948;8.472;2024-03-23T02:25:56;98.27;;;10.30;;
4895;SDS011;2463;49.948;8.472;2024-03-23T02:28:22;99.33;;;9.57;;
4895;SDS011;2463;49.948;8.472;2024-03-23T02:30:51;99.22;;;9.68;;
4895;SDS011;2463;49.948;8.472;2024-03-23T02:33:17;99.40;;;10.00;;
4895;SDS011;2463;49.948;8.472;2024-03-23T02:35:43;100.07;;;9.02;;
4895;SDS011;2463;49.948;8.472;2024-03-23T02:38:11;97.72;;;9.52;;
4895;SDS011;2463;49.948;8.472;2024-03-23T02:40:36;99.43;;;9.53;;
4895;SDS011;2463;49.948;8.472;2024-03-23T02:43:02;103.30;;;9.53;;
4895;SDS011;2463;49.948;8.472;2024-03-23T02:45:29;99.40;;;12.00;;
4895;SDS011;2463;49.948;8.472;2024-03-23T02:47:55;98.97;;;9.52;;
4895;SDS011;2463;49.948;8.472;2024-03-23T02:50:21;98.67;;;10.10;;
4895;SDS011;2463;49.948;8.472;2024-03-23T02:52:47;104.50;;;10.57;;
4895;SDS011;2463;49.948;8.472;2024-03-23T02:55:13;98.03;;;9.75;;
4895;SDS011;2463;49.948;8.472;2024-03-23T02:57:39;97.63;;;10.52;;
4895;SDS011;2463;49.948;8.472;2024-03-23T03:00:06;101.15;;;10.80;;
4895;SDS011;2463;49.948;8.472;2024-03-23T03:02:32;113.38;;;10.70;;
4895;SDS011;2463;49.948;8.472;2024-03-23T03:04:58;98.60;;;9.43;;
4895;SDS011;2463;49.948;8.472;2024-03-23T03:07:24;99.03;;;9.93;;
4895;SDS011;2463;49.948;8.472;2024-03-23T03:09:50;100.10;;;10.00;;
4895;SDS011;2463;49.948;8.472;2024-03-23T03:12:16;101.10;;;9.10;;
4895;SDS011;2463;49.948;8.472;2024-03-23T03:14:42;98.53;;;9.37;;
4895;SDS011;2463;49.948;8.472;2024-03-23T03:17:08;101.17;;;9.80;;
4895;SDS011;2463;49.948;8.472;2024-03-23T03:19:33;108.80;;;10.93;;
4895;SDS011;2463;49.948;8.472;2024-03-23T03:21:59;99.03;;;10.47;;
4895;SDS011;2463;49.948;8.472;2024-03-23T03:24:25;104.17;;;11.23;;
4895;SDS011;2463;49.948;8.472;2024-03-23T03:26:51;99.70;;;11.17;;
4895;SDS011;2463;49.948;8.472;2024-03-23T03:29:17;99.33;;;9.63;;
4895;SDS011;2463;49.948;8.472;2024-03-23T03:31:42;101.73;;;11.03;;
4895;SDS011;2463;49.948;8.472;2024-03-23T03:34:08;99.68;;;10.50;;
4895;SDS011;2463;49.948;8.472;2024-03-23T03:36:34;103.17;;;11.80;;
4895;SDS011;2463;49.948;8.472;2024-03-23T03:39:00;101.07;;;10.90;;
4895;SDS011;2463;49.948;8.472;2024-03-23T03:41:27;101.68;;;12.63;;
4895;SDS011;2463;49.948;8.472;2024-03-23T03:43:53;100.73;;;10.93;;
4895;SDS011;2463;49.948;8.472;2024-03-23T03:46:20;99.47;;;10.30;;
4895;SDS011;2463;49.948;8.472;2024-03-23T03:48:46;102.17;;;11.90;;
4895;SDS011;2463;49.948;8.472;2024-03-23T03:51:13;97.68;;;10.25;;
4895;SDS011;2463;49.948;8.472;2024-03-23T03:53:39;101.93;;;11.90;;
4895;SDS011;2463;49.948;8.472;2024-03-23T03:56:05;102.80;;;11.30;;
4895;SDS011;2463;49.948;8.472;2024-03-23T03:58:31;105.72;;;11.30;;
4895;SDS011;2463;49.948;8.472;2024-03-23T04:00:57;105.70;;;11.50;;
4895;SDS011;2463;49.948;8.472;2024-03-23T04:03:23;98.80;;;11.33;;
4895;SDS011;2463;49.948;8.472;2024-03-23T04:05:52;98.60;;;10.47;;
4895;SDS011;2463;49.948;8.472;2024-03-23T04:08:19;105.15;;;11.10;;
4895;SDS011;2463;49.948;8.472;2024-03-23T04:10:45;103.50;;;12.82;;
4895;SDS011;2463;49.948;8.472;2024-03-23T04:13:11;111.83;;;10.60;;
4895;SDS011;2463;49.948;8.472;2024-03-23T04:15:37;105.30;;;11.90;;
4895;SDS011;2463;49.948;8.472;2024-03-23T04:18:03;102.37;;;11.27;;
4895;SDS011;2463;49.948;8.472;2024-03-23T04:20:29;100.67;;;11.17;;
4895;SDS011;2463;49.948;8.472;2024-03-23T04:22:55;105.63;;;11.43;;
4895;SDS011;2463;49.948;8.472;2024-03-23T04:25:21;94.90;;;7.73;;
4895;SDS011;2463;49.948;8.472;2024-03-23T04:27:46;96.73;;;7.67;;
4895;SDS011;2463;49.948;8.472;2024-03-23T04:30:12;94.20;;;7.50;;
4895;SDS011;2463;49.948;8.472;2024-03-23T04:32:38;91.77;;;5.60;;
4895;SDS011;2463;49.948;8.472;2024-03-23T04:35:04;89.53;;;5.20;;
4895;SDS011;2463;49.948;8.472;2024-03-23T04:37:35;90.03;;;4.82;;
4895;SDS011;2463;49.948;8.472;2024-03-23T04:40:01;89.13;;;4.90;;
4895;SDS011;2463;49.948;8.472;2024-03-23T04:42:28;89.80;;;4.72;;
4895;SDS011;2463;49.948;8.472;2024-03-23T04:44:54;90.07;;;5.85;;
4895;SDS011;2463;49.948;8.472;2024-03-23T04:47:20;89.57;;;4.73;;
4895;SDS011;2463;49.948;8.472;2024-03-23T04:49:46;89.27;;;4.90;;
4895;SDS011;2463;49.948;8.472;2024-03-23T04:52:12;88.67;;;4.73;;
4895;SDS011;2463;49.948;8.472;2024-03-23T04:54:37;89.00;;;4.60;;
4895;SDS011;2463;49.948;8.472;2024-03-23T04:57:05;88.93;;;4.55;;
4895;SDS011;2463;49.948;8.472;2024-03-23T04:59:31;88.47;;;4.90;;
4895;SDS011;2463;49.948;8.472;2024-03-23T05:01:58;89.43;;;4.75;;
4895;SDS011;2463;49.948;8.472;2024-03-23T05:04:25;88.90;;;4.68;;
4895;SDS011;2463;49.948;8.472;2024-03-23T05:06:50;88.90;;;4.83;;
4895;SDS011;2463;49.948;8.472;2024-03-23T05:09:16;89.10;;;4.70;;
4895;SDS011;2463;49.948;8.472;2024-03-23T05:11:42;89.70;;;4.90;;
4895;SDS011;2463;49.948;8.472;2024-03-23T05:14:08;88.03;;;4.43;;
4895;SDS011;2463;49.948;8.472;2024-03-23T05:16:33;87.80;;;4.50;;
4895;SDS011;2463;49.948;8.472;2024-03-23T05:18:59;89.17;;;5.17;;
4895;SDS011;2463;49.948;8.472;2024-03-23T05:21:26;93.95;;;5.10;;
4895;SDS011;2463;49.948;8.472;2024-03-23T05:23:53;89.30;;;5.03;;
4895;SDS011;2463;49.948;8.472;2024-03-23T05:26:20;89.20;;;4.88;;
4895;SDS011;2463;49.948;8.472;2024-03-23T05:28:46;88.53;;;4.80;;
4895;SDS011;2463;49.948;8.472;2024-03-23T05:31:12;90.60;;;4.80;;
4895;SDS011;2463;49.948;8.472;2024-03-23T05:33:47;88.88;;;4.80;;
4895;SDS011;2463;49.948;8.472;2024-03-23T05:36:13;89.65;;;5.40;;
4895;SDS011;2463;49.948;8.472;2024-03-23T05:38:39;92.47;;;5.10;;
4895;SDS011;2463;49.948;8.472;2024-03-23T05:41:05;88.97;;;5.13;;
4895;SDS011;2463;49.948;8.472;2024-03-23T05:43:30;90.50;;;5.60;;
4895;SDS011;2463;49.948;8.472;2024-03-23T05:45:56;90.27;;;5.67;;
4895;SDS011;2463;49.948;8.472;2024-03-23T05:48:23;89.32;;;5.53;;
4895;SDS011;2463;49.948;8.472;2024-03-23T05:50:50;89.70;;;5.35;;
4895;SDS011;2463;49.948;8.472;2024-03-23T05:53:16;90.17;;;5.50;;
4895;SDS011;2463;49.948;8.472;2024-03-23T05:55:42;90.68;;;5.97;;
4895;SDS011;2463;49.948;8.472;2024-03-23T05:58:08;90.40;;;5.05;;
4895;SDS011;2463;49.948;8.472;2024-03-23T06:00:34;90.65;;;6.28;;
4895;SDS011;2463;49.948;8.472;2024-03-23T06:03:00;89.47;;;5.43;;
4895;SDS011;2463;49.948;8.472;2024-03-23T06:05:26;91.17;;;5.80;;
4895;SDS011;2463;49.948;8.472;2024-03-23T06:07:52;90.05;;;5.10;;
4895;SDS011;2463;49.948;8.472;2024-03-23T06:10:18;89.70;;;4.90;;
4895;SDS011;2463;49.948;8.472;2024-03-23T06:12:45;88.67;;;5.23;;
4895;SDS011;2463;49.948;8.472;2024-03-23T06:15:11;90.43;;;5.10;;
4895;SDS011;2463;49.948;8.472;2024-03-23T06:17:37;89.47;;;5.25;;
4895;SDS011;2463;49.948;8.472;2024-03-23T06:20:03;89.10;;;4.97;;
4895;SDS011;2463;49.948;8.472;2024-03-23T06:22:31;89.22;;;5.00;;
4895;SDS011;2463;49.948;8.472;2024-03-23T06:24:58;89.63;;;5.07;;
4895;SDS011;2463;49.948;8.472;2024-03-23T06:27:24;93.13;;;4.97;;
4895;SDS011;2463;49.948;8.472;2024-03-23T06:29:50;89.13;;;4.93;;
4895;SDS011;2463;49.948;8.472;2024-03-23T06:32:16;88.72;;;4.65;;
4895;SDS011;2463;49.948;8.472;2024-03-23T06:34:42;88.25;;;4.53;;
4895;SDS011;2463;49.948;8.472;2024-03-23T06:37:08;89.95;;;4.82;;
4895;SDS011;2463;49.948;8.472;2024-03-23T06:39:37;88.00;;;4.55;;
4895;SDS011;2463;49.948;8.472;2024-03-23T06:42:03;89.75;;;4.93;;
4895;SDS011;2463;49.948;8.472;2024-03-23T06:44:30;88.55;;;4.50;;
4895;SDS011;2463;49.948;8.472;2024-03-23T06:46:56;88.57;;;4.67;;
4895;SDS011;2463;49.948;8.472;2024-03-23T06:49:25;89.35;;;4.60;;
4895;SDS011;2463;49.948;8.472;2024-03-23T06:51:50;87.85;;;4.50;;
4895;SDS011;2463;49.948;8.472;2024-03-23T06:54:17;88.72;;;4.50;;
4895;SDS011;2463;49.948;8.472;2024-03-23T06:56:46;89.65;;;4.78;;
4895;SDS011;2463;49.948;8.472;2024-03-23T06:59:12;89.53;;;4.53;;
4895;SDS011;2463;49.948;8.472;2024-03-23T07:01:37;88.67;;;4.57;;
4895;SDS011;2463;49.948;8.472;2024-03-23T07:04:03;88.40;;;4.63;;
4895;SDS011;2463;49.948;8.472;2024-03-23T07:06:32;89.00;;;4.65;;
4895;SDS011;2463;49.948;8.472;2024-03-23T07:08:59;88.97;;;4.93;;
4895;SDS011;2463;49.948;8.472;2024-03-23T07:11:25;89.63;;;4.70;;
4895;SDS011;2463;49.948;8.472;2024-03-23T07:13:52;87.82;;;4.50;;
4895;SDS011;2463;49.948;8.472;2024-03-23T07:16:22;88.85;;;4.65;;
4895;SDS011;2463;49.948;8.472;2024-03-23T07:18:50;90.93;;;4.90;;
4895;SDS011;2463;49.948;8.472;2024-03-23T07:21:15;88.28;;;4.38;;
4895;SDS011;2463;49.948;8.472;2024-03-23T07:23:44;88.20;;;4.50;;
4895;SDS011;2463;49.948;8.472;2024-03-23T07:26:10;88.28;;;4.70;;
4895;SDS011;2463;49.948;8.472;2024-03-23T07:28:36;89.45;;;4.60;;
4895;SDS011;2463;49.948;8.472;2024-03-23T07:31:04;91.97;;;5.15;;
4895;SDS011;2463;49.948;8.472;2024-03-23T07:33:31;89.72;;;4.88;;
4895;SDS011;2463;49.948;8.472;2024-03-23T07:35:57;89.38;;;5.25;;
4895;SDS011;2463;49.948;8.472;2024-03-23T07:38:26;90.55;;;5.10;;
4895;SDS011;2463;49.948;8.472;2024-03-23T07:41:02;88.07;;;4.85;;
4895;SDS011;2463;49.948;8.472;2024-03-23T07:43:39;98.80;;;5.88;;
4895;SDS011;2463;49.948;8.472;2024-03-23T07:46:05;91.63;;;5.00;;
4895;SDS011;2463;49.948;8.472;2024-03-23T07:48:32;89.97;;;5.03;;
4895;SDS011;2463;49.948;8.472;2024-03-23T07:50:58;89.68;;;4.97;;
4895;SDS011;2463;49.948;8.472;2024-03-23T07:53:29;90.45;;;6.20;;
4895;SDS011;2463;49.948;8.472;2024-03-23T07:55:56;88.90;;;4.72;;
4895;SDS011;2463;49.948;8.472;2024-03-23T07:58:23;93.47;;;5.55;;
4895;SDS011;2463;49.948;8.472;2024-03-23T08:00:49;90.32;;;5.10;;
4895;SDS011;2463;49.948;8.472;2024-03-23T08:03:15;88.10;;;4.53;;
4895;SDS011;2463;49.948;8.472;2024-03-23T08:05:41;88.70;;;4.73;;
4895;SDS011;2463;49.948;8.472;2024-03-23T08:08:06;90.13;;;5.13;;
4895;SDS011;2463;49.948;8.472;2024-03-23T08:10:32;89.30;;;5.53;;
4895;SDS011;2463;49.948;8.472;2024-03-23T08:12:58;90.10;;;6.23;;
4895;SDS011;2463;49.948;8.472;2024-03-23T08:15:24;89.30;;;5.67;;
4895;SDS011;2463;49.948;8.472;2024-03-23T08:17:50;89.63;;;5.80;;
4895;SDS011;2463;49.948;8.472;2024-03-23T08:20:16;89.22;;;5.38;;
4895;SDS011;2463;49.948;8.472;2024-03-23T08:22:41;88.70;;;5.50;;
4895;SDS011;2463;49.948;8.472;2024-03-23T08:25:07;91.03;;;5.10;;
4895;SDS011;2463;49.948;8.472;2024-03-23T08:27:33;88.27;;;5.17;;
4895;SDS011;2463;49.948;8.472;2024-03-23T08:29:58;87.63;;;5.00;;
4895;SDS011;2463;49.948;8.472;2024-03-23T08:32:24;87.70;;;5.10;;
4895;SDS011;2463;49.948;8.472;2024-03-23T08:34:50;87.90;;;5.10;;
4895;SDS011;2463;49.948;8.472;2024-03-23T08:37:15;89.13;;;5.60;;
4895;SDS011;2463;49.948;8.472;2024-03-23T08:39:44;89.40;;;5.57;;
4895;SDS011;2463;49.948;8.472;2024-03-23T08:42:10;89.78;;;5.75;;
4895;SDS011;2463;49.948;8.472;2024-03-23T08:44:35;90.30;;;5.40;;
4895;SDS011;2463;49.948;8.472;2024-03-23T08:47:01;90.33;;;4.97;;
4895;SDS011;2463;49.948;8.472;2024-03-23T08:49:27;94.93;;;5.20;;
4895;SDS011;2463;49.948;8.472;2024-03-23T08:51:53;96.57;;;4.97;;
4895;SDS011;2463;49.948;8.472;2024-03-23T08:54:19;96.60;;;5.68;;
4895;SDS011;2463;49.948;8.472;2024-03-23T08:56:47;90.38;;;4.82;;
4895;SDS011;2463;49.948;8.472;2024-03-23T08:59:13;86.00;;;4.60;;
4895;SDS011;2463;49.948;8.472;2024-03-23T09:01:38;87.80;;;4.93;;
4895;SDS011;2463;49.948;8.472;2024-03-23T09:04:04;87.40;;;4.60;;
4895;SDS011;2463;49.948;8.472;2024-03-23T09:06:30;96.67;;;4.83;;
4895;SDS011;2463;49.948;8.472;2024-03-23T09:08:55;89.37;;;4.70;;
4895;SDS011;2463;49.948;8.472;2024-03-23T09:11:21;96.60;;;7.43;;
4895;SDS011;2463;49.948;8.472;2024-03-23T09:13:47;90.63;;;4.70;;
4895;SDS011;2463;49.948;8.472;2024-03-23T09:16:13;87.03;;;4.97;;
4895;SDS011;2463;49.948;8.472;2024-03-23T09:18:38;88.60;;;4.70;;
4895;SDS011;2463;49.948;8.472;2024-03-23T09:21:09;89.70;;;4.87;;
4895;SDS011;2463;49.948;8.472;2024-03-23T09:23:38;87.30;;;4.80;;
4895;SDS011;2463;49.948;8.472;2024-03-23T09:26:04;91.93;;;4.73;;
4895;SDS011;2463;49.948;8.472;2024-03-23T09:28:30;92.50;;;4.45;;
4895;SDS011;2463;49.948;8.472;2024-03-23T09:31:01;87.83;;;4.87;;
4895;SDS011;2463;49.948;8.472;2024-03-23T09:33:30;88.47;;;4.43;;
4895;SDS011;2463;49.948;8.472;2024-03-23T09:35:56;86.82;;;4.30;;
4895;SDS011;2463;49.948;8.472;2024-03-23T09:38:22;88.80;;;4.70;;
4895;SDS011;2463;49.948;8.472;2024-03-23T09:40:52;87.30;;;4.20;;
4895;SDS011;2463;49.948;8.472;2024-03-23T09:43:18;88.43;;;4.25;;
4895;SDS011;2463;49.948;8.472;2024-03-23T09:45:45;85.63;;;3.80;;
4895;SDS011;2463;49.948;8.472;2024-03-23T09:48:11;85.22;;;3.83;;
4895;SDS011;2463;49.948;8.472;2024-03-23T09:53:04;88.22;;;4.35;;
4895;SDS011;2463;49.948;8.472;2024-03-23T09:55:31;85.53;;;4.10;;
4895;SDS011;2463;49.948;8.472;2024-03-23T09:57:57;88.57;;;4.03;;
4895;SDS011;2463;49.948;8.472;2024-03-23T10:00:23;87.03;;;4.43;;
4895;SDS011;2463;49.948;8.472;2024-03-23T10:02:48;85.77;;;4.40;;
4895;SDS011;2463;49.948;8.472;2024-03-23T10:05:21;89.00;;;4.17;;
4895;SDS011;2463;49.948;8.472;2024-03-23T10:07:51;86.45;;;3.97;;
4895;SDS011;2463;49.948;8.472;2024-03-23T10:10:17;86.32;;;4.18;;
4895;SDS011;2463;49.948;8.472;2024-03-23T10:12:46;86.95;;;4.20;;
4895;SDS011;2463;49.948;8.472;2024-03-23T10:15:34;86.53;;;3.80;;
4895;SDS011;2463;49.948;8.472;2024-03-23T10:18:19;90.25;;;4.70;;
4895;SDS011;2463;49.948;8.472;2024-03-23T10:20:52;86.82;;;4.25;;
4895;SDS011;2463;49.948;8.472;2024-03-23T10:23:31;91.65;;;4.80;;
4895;SDS011;2463;49.948;8.472;2024-03-23T10:28:54;92.60;;;4.90;;
4895;SDS011;2463;49.948;8.472;2024-03-23T10:31:33;87.57;;;4.50;;
4895;SDS011;2463;49.948;8.472;2024-03-23T10:34:00;87.38;;;4.70;;
4895;SDS011;2463;49.948;8.472;2024-03-23T10:36:27;89.22;;;4.80;;
4895;SDS011;2463;49.948;8.472;2024-03-23T10:38:55;88.03;;;4.63;;
4895;SDS011;2463;49.948;8.472;2024-03-23T10:41:26;94.82;;;4.60;;
4895;SDS011;2463;49.948;8.472;2024-03-23T10:43:53;87.88;;;4.20;;
4895;SDS011;2463;49.948;8.472;2024-03-23T10:46:21;89.68;;;4.60;;
4895;SDS011;2463;49.948;8.472;2024-03-23T10:48:47;88.57;;;4.37;;
4895;SDS011;2463;49.948;8.472;2024-03-23T10:51:13;94.10;;;4.63;;
4895;SDS011;2463;49.948;8.472;2024-03-23T10:53:40;88.68;;;4.60;;
4895;SDS011;2463;49.948;8.472;2024-03-23T10:56:06;92.73;;;5.40;;
4895;SDS011;2463;49.948;8.472;2024-03-23T10:58:37;93.25;;;5.45;;
4895;SDS011;2463;49.948;8.472;2024-03-23T11:01:04;89.93;;;5.00;;
4895;SDS011;2463;49.948;8.472;2024-03-23T11:03:35;89.13;;;4.72;;
4895;SDS011;2463;49.948;8.472;2024-03-23T11:06:02;91.75;;;5.00;;
4895;SDS011;2463;49.948;8.472;2024-03-23T11:08:39;91.85;;;5.13;;
4895;SDS011;2463;49.948;8.472;2024-03-23T11:11:16;89.82;;;5.32;;
4895;SDS011;2463;49.948;8.472;2024-03-23T11:13:50;99.18;;;5.43;;
4895;SDS011;2463;49.948;8.472;2024-03-23T11:16:21;90.45;;;5.40;;
4895;SDS011;2463;49.948;8.472;2024-03-23T11:18:53;94.40;;;5.40;;
4895;SDS011;2463;49.948;8.472;2024-03-23T11:24:20;95.38;;;5.28;;
4895;SDS011;2463;49.948;8.472;2024-03-23T11:26:47;89.70;;;4.70;;
4895;SDS011;2463;49.948;8.472;2024-03-23T11:29:14;90.03;;;5.00;;
4895;SDS011;2463;49.948;8.472;2024-03-23T11:31:51;91.20;;;4.72;;
4895;SDS011;2463;49.948;8.472;2024-03-23T11:34:18;89.78;;;4.97;;
4895;SDS011;2463;49.948;8.472;2024-03-23T11:36:45;89.43;;;4.65;;
4895;SDS011;2463;49.948;8.472;2024-03-23T11:39:12;88.93;;;4.53;;
4895;SDS011;2463;49.948;8.472;2024-03-23T11:44:14;86.75;;;4.07;;
4895;SDS011;2463;49.948;8.472;2024-03-23T11:46:41;85.07;;;3.50;;
4895;SDS011;2463;49.948;8.472;2024-03-23T11:49:07;86.67;;;4.67;;
4895;SDS011;2463;49.948;8.472;2024-03-23T11:51:52;82.65;;;3.22;;
4895;SDS011;2463;49.948;8.472;2024-03-23T11:54:23;86.70;;;3.00;;
4895;SDS011;2463;49.948;8.472;2024-03-23T11:56:54;80.80;;;3.20;;
4895;SDS011;2463;49.948;8.472;2024-03-23T11:59:33;81.97;;;3.30;;
4895;SDS011;2463;49.948;8.472;2024-03-23T12:04:33;81.80;;;3.27;;
4895;SDS011;2463;49.948;8.472;2024-03-23T12:09:46;82.67;;;3.07;;
4895;SDS011;2463;49.948;8.472;2024-03-23T12:12:27;79.37;;;3.03;;
4895;SDS011;2463;49.948;8.472;2024-03-23T12:15:05;82.77;;;3.20;;
4895;SDS011;2463;49.948;8.472;2024-03-23T12:17:33;83.17;;;3.77;;
4895;SDS011;2463;49.948;8.472;2024-03-23T12:20:00;82.53;;;3.40;;
4895;SDS011;2463;49.948;8.472;2024-03-23T12:22:26;82.53;;;2.80;;
4895;SDS011;2463;49.948;8.472;2024-03-23T12:24:54;81.17;;;2.80;;
4895;SDS011;2463;49.948;8.472;2024-03-23T12:27:20;82.53;;;3.10;;
4895;SDS011;2463;49.948;8.472;2024-03-23T12:29:46;79.23;;;2.70;;
4895;SDS011;2463;49.948;8.472;2024-03-23T12:32:12;80.57;;;2.83;;
4895;SDS011;2463;49.948;8.472;2024-03-23T12:34:38;81.67;;;3.20;;
4895;SDS011;2463;49.948;8.472;2024-03-23T12:37:04;85.53;;;3.20;;
4895;SDS011;2463;49.948;8.472;2024-03-23T12:39:34;81.83;;;3.03;;
4895;SDS011;2463;49.948;8.472;2024-03-23T12:42:01;83.17;;;3.27;;
4895;SDS011;2463;49.948;8.472;2024-03-23T12:44:28;85.80;;;4.07;;
4895;SDS011;2463;49.948;8.472;2024-03-23T12:46:54;86.85;;;3.55;;
4895;SDS011;2463;49.948;8.472;2024-03-23T12:49:20;83.50;;;3.57;;
4895;SDS011;2463;49.948;8.472;2024-03-23T12:51:55;84.77;;;3.57;;
4895;SDS011;2463;49.948;8.472;2024-03-23T12:54:21;85.82;;;4.20;;
4895;SDS011;2463;49.948;8.472;2024-03-23T12:56:47;86.35;;;4.25;;
4895;SDS011;2463;49.948;8.472;2024-03-23T12:59:13;86.63;;;4.47;;
4895;SDS011;2463;49.948;8.472;2024-03-23T13:01:39;86.43;;;4.22;;
4895;SDS011;2463;49.948;8.472;2024-03-23T13:04:05;87.43;;;4.88;;
4895;SDS011;2463;49.948;8.472;2024-03-23T13:06:31;87.70;;;4.30;;
4895;SDS011;2463;49.948;8.472;2024-03-23T13:12:13;95.45;;;5.82;;
4895;SDS011;2463;49.948;8.472;2024-03-23T13:14:39;88.83;;;4.50;;
4895;SDS011;2463;49.948;8.472;2024-03-23T13:17:05;89.63;;;4.80;;
4895;SDS011;2463;49.948;8.472;2024-03-23T13:19:32;89.50;;;4.55;;
4895;SDS011;2463;49.948;8.472;2024-03-23T13:21:58;91.28;;;4.55;;
4895;SDS011;2463;49.948;8.472;2024-03-23T13:24:25;89.18;;;4.63;;
4895;SDS011;2463;49.948;8.472;2024-03-23T13:26:52;89.15;;;4.38;;
4895;SDS011;2463;49.948;8.472;2024-03-23T13:29:19;88.13;;;4.30;;
4895;SDS011;2463;49.948;8.472;2024-03-23T13:31:48;87.70;;;4.30;;
4895;SDS011;2463;49.948;8.472;2024-03-23T13:34:15;87.45;;;4.25;;
4895;SDS011;2463;49.948;8.472;2024-03-23T13:36:41;87.47;;;4.05;;
4895;SDS011;2463;49.948;8.472;2024-03-23T13:39:08;85.68;;;3.75;;
4895;SDS011;2463;49.948;8.472;2024-03-23T13:41:37;85.45;;;3.47;;
4895;SDS011;2463;49.948;8.472;2024-03-23T13:44:04;85.25;;;3.53;;
4895;SDS011;2463;49.948;8.472;2024-03-23T13:46:35;84.85;;;3.60;;
4895;SDS011;2463;49.948;8.472;2024-03-23T13:49:02;83.82;;;3.40;;
4895;SDS011;2463;49.948;8.472;2024-03-23T13:51:28;84.25;;;3.20;;
4895;SDS011;2463;49.948;8.472;2024-03-23T13:53:54;83.93;;;3.30;;
4895;SDS011;2463;49.948;8.472;2024-03-23T13:56:27;84.32;;;3.40;;
4895;SDS011;2463;49.948;8.472;2024-03-23T13:58:55;84.85;;;3.65;;
4895;SDS011;2463;49.948;8.472;2024-03-23T14:01:21;84.57;;;3.33;;
4895;SDS011;2463;49.948;8.472;2024-03-23T14:03:47;86.17;;;4.73;;
4895;SDS011;2463;49.948;8.472;2024-03-23T14:06:13;94.73;;;4.47;;
4895;SDS011;2463;49.948;8.472;2024-03-23T14:08:39;84.87;;;3.50;;
4895;SDS011;2463;49.948;8.472;2024-03-23T14:11:05;87.40;;;3.47;;
4895;SDS011;2463;49.948;8.472;2024-03-23T14:13:31;88.32;;;3.60;;
4895;SDS011;2463;49.948;8.472;2024-03-23T14:15:57;84.87;;;3.47;;
4895;SDS011;2463;49.948;8.472;2024-03-23T14:18:23;86.10;;;3.70;;
4895;SDS011;2463;49.948;8.472;2024-03-23T14:20:51;85.22;;;3.55;;
4895;SDS011;2463;49.948;8.472;2024-03-23T14:23:18;85.60;;;3.45;;
4895;SDS011;2463;49.948;8.472;2024-03-23T14:25:44;85.27;;;3.60;;
4895;SDS011;2463;49.948;8.472;2024-03-23T14:28:10;85.43;;;3.60;;
4895;SDS011;2463;49.948;8.472;2024-03-23T14:30:40;86.22;;;4.20;;
4895;SDS011;2463;49.948;8.472;2024-03-23T14:33:06;86.90;;;4.10;;
4895;SDS011;2463;49.948;8.472;2024-03-23T14:35:32;86.75;;;4.05;;
4895;SDS011;2463;49.948;8.472;2024-03-23T14:37:58;89.87;;;4.13;;
4895;SDS011;2463;49.948;8.472;2024-03-23T14:40:24;87.88;;;3.80;;
4895;SDS011;2463;49.948;8.472;2024-03-23T14:42:56;87.63;;;4.00;;
4895;SDS011;2463;49.948;8.472;2024-03-23T14:45:22;86.22;;;3.85;;
4895;SDS011;2463;49.948;8.472;2024-03-23T14:47:49;88.97;;;3.92;;
4895;SDS011;2463;49.948;8.472;2024-03-23T14:50:16;87.05;;;4.07;;
4895;SDS011;2463;49.948;8.472;2024-03-23T14:52:45;87.20;;;3.80;;
4895;SDS011;2463;49.948;8.472;2024-03-23T14:55:11;89.38;;;4.00;;
4895;SDS011;2463;49.948;8.472;2024-03-23T14:57:37;86.72;;;4.10;;
4895;SDS011;2463;49.948;8.472;2024-03-23T15:00:07;91.68;;;4.35;;
4895;SDS011;2463;49.948;8.472;2024-03-23T15:02:36;87.20;;;3.88;;
4895;SDS011;2463;49.948;8.472;2024-03-23T15:05:02;88.78;;;4.18;;
4895;SDS011;2463;49.948;8.472;2024-03-23T15:07:30;87.68;;;4.30;;
4895;SDS011;2463;49.948;8.472;2024-03-23T15:09:56;90.18;;;4.30;;
4895;SDS011;2463;49.948;8.472;2024-03-23T15:12:22;87.47;;;4.20;;
4895;SDS011;2463;49.948;8.472;2024-03-23T15:14:47;89.80;;;4.27;;
4895;SDS011;2463;49.948;8.472;2024-03-23T15:17:13;87.40;;;4.10;;
4895;SDS011;2463;49.948;8.472;2024-03-23T15:19:39;87.70;;;4.27;;
4895;SDS011;2463;49.948;8.472;2024-03-23T15:22:07;87.15;;;4.15;;
4895;SDS011;2463;49.948;8.472;2024-03-23T15:24:34;87.57;;;4.40;;
4895;SDS011;2463;49.948;8.472;2024-03-23T15:27:01;88.63;;;4.93;;
4895;SDS011;2463;49.948;8.472;2024-03-23T15:29:28;88.82;;;4.28;;
4895;SDS011;2463;49.948;8.472;2024-03-23T15:31:53;88.30;;;4.43;;
4895;SDS011;2463;49.948;8.472;2024-03-23T15:34:19;87.93;;;4.17;;
4895;SDS011;2463;49.948;8.472;2024-03-23T15:36:47;88.43;;;4.55;;
4895;SDS011;2463;49.948;8.472;2024-03-23T15:39:16;88.80;;;4.40;;
4895;SDS011;2463;49.948;8.472;2024-03-23T15:41:45;89.03;;;4.70;;
4895;SDS011;2463;49.948;8.472;2024-03-23T15:44:11;89.68;;;4.47;;
4895;SDS011;2463;49.948;8.472;2024-03-23T15:46:37;90.03;;;4.57;;
4895;SDS011;2463;49.948;8.472;2024-03-23T15:49:03;88.93;;;4.70;;
4895;SDS011;2463;49.948;8.472;2024-03-23T15:51:30;88.93;;;4.60;;
4895;SDS011;2463;49.948;8.472;2024-03-23T15:54:00;89.30;;;4.63;;
4895;SDS011;2463;49.948;8.472;2024-03-23T15:56:26;88.97;;;4.60;;
4895;SDS011;2463;49.948;8.472;2024-03-23T15:58:54;89.03;;;5.10;;
4895;SDS011;2463;49.948;8.472;2024-03-23T16:01:20;89.57;;;4.75;;
4895;SDS011;2463;49.948;8.472;2024-03-23T16:03:47;89.45;;;4.45;;
4895;SDS011;2463;49.948;8.472;2024-03-23T16:06:12;94.40;;;4.60;;
4895;SDS011;2463;49.948;8.472;2024-03-23T16:08:38;88.80;;;4.80;;
4895;SDS011;2463;49.948;8.472;2024-03-23T16:11:05;90.57;;;4.60;;